createdAt,value
2022-08-23T00:01:59.928Z,11.60
2022-08-23T00:04:34.974Z,11.20
2022-08-23T00:07:03.926Z,11.60
2022-08-23T00:09:30.666Z,11.50
2022-08-23T00:12:08.469Z,11.60
2022-08-23T00:14:39.344Z,11.60
2022-08-23T00:19:34.589Z,12.30
2022-08-23T00:22:01.215Z,14.90
2022-08-23T00:24:28.026Z,15.00
2022-08-23T00:27:01.746Z,15.70
2022-08-23T00:29:39.162Z,15.50
2022-08-23T00:32:08.239Z,15.00
2022-08-23T00:34:36.264Z,14.90
2022-08-23T00:37:04.171Z,16.30
2022-08-23T00:39:31.442Z,15.50
2022-08-23T00:42:03.949Z,16.00
2022-08-23T00:44:34.049Z,15.10
2022-08-23T00:47:01.920Z,15.70
2022-08-23T00:49:31.212Z,16.40
2022-08-23T00:52:09.645Z,16.10
2022-08-23T00:54:39.551Z,16.30
2022-08-23T00:57:10.916Z,15.90
2022-08-23T00:59:37.440Z,16.40
2022-08-23T01:02:07.574Z,15.80
2022-08-23T01:04:40.801Z,16.60
2022-08-23T01:07:19.174Z,17.20
2022-08-23T01:09:49.739Z,16.50
2022-08-23T01:12:32.979Z,16.20
2022-08-23T01:15:23.474Z,16.00
2022-08-23T01:18:05.663Z,16.60
2022-08-23T01:21:03.591Z,16.00
2022-08-23T01:23:43.473Z,15.70
2022-08-23T01:26:11.619Z,15.50
2022-08-23T01:28:38.941Z,16.50
2022-08-23T01:31:06.579Z,18.50
2022-08-23T01:33:34.459Z,17.80
2022-08-23T01:36:01.979Z,17.10
2022-08-23T01:38:32.726Z,16.10
2022-08-23T01:40:59.634Z,16.20
2022-08-23T01:43:26.892Z,16.60
2022-08-23T01:45:54.655Z,16.40
2022-08-23T01:48:22.566Z,16.40
2022-08-23T01:50:49.277Z,16.20
2022-08-23T01:53:16.178Z,17.10
2022-08-23T01:55:43.576Z,17.00
2022-08-23T01:58:10.233Z,16.60
2022-08-23T02:00:40.779Z,19.10
2022-08-23T02:03:08.647Z,18.90
2022-08-23T02:05:36.925Z,18.80
2022-08-23T02:08:05.314Z,17.50
2022-08-23T02:10:32.167Z,17.50
2022-08-23T02:12:58.811Z,16.50
2022-08-23T02:15:25.461Z,15.50
2022-08-23T02:17:52.031Z,14.00
2022-08-23T02:20:18.734Z,13.20
2022-08-23T02:22:45.333Z,11.40
2022-08-23T02:25:11.925Z,10.90
2022-08-23T02:27:38.464Z,11.90
2022-08-23T02:30:11.496Z,12.60
2022-08-23T02:32:38.215Z,11.50
2022-08-23T02:35:06.102Z,12.00
2022-08-23T02:37:33.553Z,14.30
2022-08-23T02:40:00.613Z,12.80
2022-08-23T02:42:27.271Z,14.00
2022-08-23T02:44:53.832Z,12.90
2022-08-23T02:47:20.431Z,11.50
2022-08-23T02:49:47.277Z,11.50
2022-08-23T02:52:14.225Z,12.50
2022-08-23T02:54:40.970Z,13.70
2022-08-23T02:57:07.506Z,14.40
2022-08-23T02:59:34.272Z,12.20
2022-08-23T03:02:01.470Z,12.40
2022-08-23T03:04:28.158Z,12.00
2022-08-23T03:06:54.841Z,11.60
2022-08-23T03:09:21.954Z,12.20
2022-08-23T03:11:50.241Z,11.10
2022-08-23T03:14:17.395Z,11.20
2022-08-23T03:16:44.423Z,11.30
2022-08-23T03:19:11.310Z,12.10
2022-08-23T03:21:38.185Z,12.60
2022-08-23T03:24:09.996Z,12.20
2022-08-23T03:26:37.788Z,12.80
2022-08-23T03:29:04.673Z,12.10
2022-08-23T03:31:31.404Z,11.60
2022-08-23T03:33:58.471Z,11.60
2022-08-23T03:36:28.017Z,11.80
2022-08-23T03:38:55.868Z,11.10
2022-08-23T03:41:22.786Z,10.90
2022-08-23T03:43:49.813Z,10.90
2022-08-23T03:46:16.785Z,10.90
2022-08-23T03:48:43.322Z,12.60
2022-08-23T03:51:09.969Z,12.70
2022-08-23T03:53:36.591Z,18.30
2022-08-23T03:56:03.749Z,23.30
2022-08-23T03:58:30.320Z,28.00
2022-08-23T04:00:56.978Z,30.00
2022-08-23T04:03:23.709Z,29.50
2022-08-23T04:05:50.243Z,31.20
2022-08-23T04:08:18.051Z,31.70
2022-08-23T04:10:53.706Z,35.00
2022-08-23T04:13:22.597Z,28.10
2022-08-23T04:15:49.304Z,24.60
2022-08-23T04:18:16.047Z,23.00
2022-08-23T04:20:43.003Z,22.20
2022-08-23T04:23:09.620Z,21.80
2022-08-23T04:25:36.209Z,21.80
2022-08-23T04:28:04.292Z,26.40
2022-08-23T04:30:32.031Z,25.10
2022-08-23T04:32:58.611Z,26.70
2022-08-23T04:35:26.037Z,40.10
2022-08-23T04:37:53.476Z,48.40
2022-08-23T04:40:20.144Z,48.20
2022-08-23T04:42:46.882Z,44.30
2022-08-23T04:45:13.459Z,41.70
2022-08-23T04:47:40.032Z,42.90
2022-08-23T04:50:07.733Z,37.40
2022-08-23T04:52:34.376Z,28.80
2022-08-23T04:55:00.920Z,26.00
2022-08-23T04:57:27.722Z,25.10
2022-08-23T04:59:54.452Z,28.20
2022-08-23T05:02:21.158Z,28.20
2022-08-23T05:04:47.745Z,29.20
2022-08-23T05:07:14.444Z,25.90
2022-08-23T05:09:41.363Z,26.10
2022-08-23T05:12:08.336Z,38.70
2022-08-23T05:14:35.019Z,24.50
2022-08-23T05:17:01.614Z,23.80
2022-08-23T05:19:28.379Z,22.20
2022-08-23T05:21:57.106Z,22.20
2022-08-23T05:24:24.123Z,19.70
2022-08-23T05:26:50.835Z,18.60
2022-08-23T05:29:17.511Z,18.30
2022-08-23T05:31:44.355Z,17.30
2022-08-23T05:34:13.455Z,19.00
2022-08-23T05:36:51.644Z,15.80
2022-08-23T05:39:32.786Z,17.70
2022-08-23T05:42:04.207Z,18.40
2022-08-23T05:44:36.124Z,16.90
2022-08-23T05:47:10.713Z,17.10
2022-08-23T05:49:39.597Z,19.90
2022-08-23T05:52:09.594Z,20.30
2022-08-23T05:54:36.514Z,19.50
2022-08-23T05:57:03.421Z,24.20
2022-08-23T05:59:30.574Z,23.20
2022-08-23T06:01:57.283Z,23.20
2022-08-23T06:04:24.100Z,22.40
2022-08-23T06:06:50.912Z,23.60
2022-08-23T06:09:18.923Z,26.10
2022-08-23T06:11:47.353Z,25.00
2022-08-23T06:14:14.980Z,16.50
2022-08-23T06:16:45.281Z,16.00
2022-08-23T06:19:13.770Z,28.30
2022-08-23T06:21:41.556Z,12.60
2022-08-23T06:24:08.398Z,14.10
2022-08-23T06:26:38.912Z,16.40
2022-08-23T06:29:10.095Z,16.90
2022-08-23T06:31:44.166Z,19.80
2022-08-23T06:34:32.416Z,21.40
2022-08-23T06:37:01.968Z,16.40
2022-08-23T06:39:31.188Z,14.50
2022-08-23T06:42:13.291Z,13.20
2022-08-23T06:44:49.130Z,11.10
2022-08-23T06:47:15.728Z,14.20
2022-08-23T06:49:57.804Z,15.10
2022-08-23T06:52:26.247Z,11.80
2022-08-23T06:54:53.231Z,10.70
2022-08-23T06:57:20.127Z,8.60
2022-08-23T06:59:48.923Z,10.70
2022-08-23T07:02:16.160Z,11.40
2022-08-23T07:04:43.015Z,11.50
2022-08-23T07:07:11.776Z,12.30
2022-08-23T07:09:39.709Z,15.50
2022-08-23T07:12:06.619Z,14.70
2022-08-23T07:14:34.007Z,14.80
2022-08-23T07:17:02.057Z,13.90
2022-08-23T07:19:32.715Z,14.40
2022-08-23T07:22:00.147Z,14.70
2022-08-23T07:24:33.070Z,14.50
2022-08-23T07:27:02.239Z,15.50
2022-08-23T07:29:28.821Z,14.10
2022-08-23T07:31:57.010Z,15.60
2022-08-23T07:34:25.092Z,15.10
2022-08-23T07:36:54.443Z,14.90
2022-08-23T07:39:23.131Z,15.70
2022-08-23T07:41:49.954Z,14.80
2022-08-23T07:44:18.131Z,13.70
2022-08-23T07:46:46.351Z,15.00
2022-08-23T07:49:13.595Z,15.80
2022-08-23T07:51:42.770Z,14.70
2022-08-23T07:54:11.163Z,14.30
2022-08-23T07:56:38.780Z,12.80
2022-08-23T07:59:06.900Z,13.10
2022-08-23T08:01:33.948Z,13.90
2022-08-23T08:04:02.587Z,12.80
2022-08-23T08:06:43.319Z,12.50
2022-08-23T08:09:11.009Z,12.70
2022-08-23T08:11:37.867Z,11.80
2022-08-23T08:14:07.336Z,11.70
2022-08-23T08:16:40.052Z,12.00
2022-08-23T08:19:09.157Z,10.40
2022-08-23T08:21:38.850Z,10.90
2022-08-23T08:24:10.151Z,11.00
2022-08-23T08:26:37.011Z,9.00
2022-08-23T08:29:04.523Z,9.40
2022-08-23T08:31:31.151Z,8.00
2022-08-23T08:33:57.856Z,7.60
2022-08-23T08:36:42.581Z,8.80
2022-08-23T08:39:12.851Z,7.50
2022-08-23T08:44:18.996Z,7.40
2022-08-23T08:46:51.791Z,7.50
2022-08-23T08:49:24.119Z,7.70
2022-08-23T08:51:59.977Z,7.30
2022-08-23T08:54:29.242Z,7.80
2022-08-23T08:56:58.757Z,7.60
2022-08-23T08:59:36.935Z,7.60
2022-08-23T09:02:05.778Z,7.80
2022-08-23T09:04:49.714Z,7.50
2022-08-23T09:07:38.757Z,7.30
2022-08-23T09:10:16.153Z,7.50
2022-08-23T09:13:02.200Z,6.70
2022-08-23T09:15:39.686Z,7.90
2022-08-23T09:18:13.287Z,6.20
2022-08-23T09:20:42.165Z,6.80
2022-08-23T09:23:08.593Z,6.40
2022-08-23T09:25:35.321Z,9.00
2022-08-23T09:28:05.807Z,7.30
2022-08-23T09:30:57.826Z,7.00
2022-08-23T09:33:42.254Z,7.60
2022-08-23T09:36:16.480Z,6.40
2022-08-23T09:39:05.957Z,8.30
2022-08-23T09:41:38.565Z,7.90
2022-08-23T09:44:13.935Z,7.30
2022-08-23T09:46:43.033Z,8.60
2022-08-23T09:49:22.087Z,6.30
2022-08-23T09:51:50.103Z,7.00
2022-08-23T09:54:25.759Z,6.10
2022-08-23T09:56:59.749Z,6.40
2022-08-23T09:59:26.818Z,6.50
2022-08-23T10:02:00.284Z,5.90
2022-08-23T10:04:29.111Z,6.30
2022-08-23T10:06:56.905Z,6.50
2022-08-23T10:09:27.327Z,6.10
2022-08-23T10:11:56.853Z,5.90
2022-08-23T10:14:27.345Z,5.70
2022-08-23T10:17:31.085Z,5.40
2022-08-23T10:20:06.634Z,5.10
2022-08-23T10:22:55.803Z,5.40
2022-08-23T10:25:25.105Z,5.10
2022-08-23T10:27:54.549Z,6.00
2022-08-23T10:30:27.718Z,5.70
2022-08-23T10:33:18.540Z,4.90
2022-08-23T10:35:52.246Z,3.80
2022-08-23T10:38:45.242Z,3.60
2022-08-23T10:41:36.423Z,3.60
2022-08-23T10:44:27.270Z,4.20
2022-08-23T10:47:19.886Z,4.80
2022-08-23T10:49:50.624Z,4.10
2022-08-23T10:52:33.197Z,3.80
2022-08-23T10:55:04.474Z,3.70
2022-08-23T10:57:35.160Z,3.80
2022-08-23T11:00:06.729Z,4.20
2022-08-23T11:02:46.354Z,4.10
2022-08-23T11:05:28.751Z,4.20
2022-08-23T11:08:02.879Z,4.40
2022-08-23T11:10:38.820Z,3.80
2022-08-23T11:13:21.756Z,4.20
2022-08-23T11:16:22.290Z,4.20
2022-08-23T11:18:50.574Z,3.80
2022-08-23T11:21:17.215Z,4.10
2022-08-23T11:23:59.062Z,4.70
2022-08-23T11:26:28.354Z,3.70
2022-08-23T11:29:16.877Z,4.30
2022-08-23T11:32:00.036Z,4.80
2022-08-23T11:34:30.040Z,4.20
2022-08-23T11:37:18.726Z,4.70
2022-08-23T11:39:57.636Z,5.10
2022-08-23T11:42:42.941Z,4.80
2022-08-23T11:45:29.923Z,4.60
2022-08-23T11:48:18.685Z,4.10
2022-08-23T11:50:55.891Z,4.30
2022-08-23T11:53:49.655Z,5.00
2022-08-23T11:56:49.990Z,4.60
2022-08-23T11:59:27.647Z,3.70
2022-08-23T12:01:54.761Z,3.90
2022-08-23T12:04:52.280Z,3.60
2022-08-23T12:07:47.663Z,3.50
2022-08-23T12:10:42.973Z,4.40
2022-08-23T12:13:18.538Z,4.30
2022-08-23T12:16:16.751Z,3.90
2022-08-23T12:18:47.624Z,4.00
2022-08-23T12:21:31.162Z,4.50
2022-08-23T12:24:13.377Z,4.50
2022-08-23T12:26:42.784Z,4.50
2022-08-23T12:29:21.995Z,4.80
2022-08-23T12:32:08.023Z,4.30
2022-08-23T12:34:47.232Z,4.60
2022-08-23T12:37:21.582Z,3.80
2022-08-23T12:39:52.911Z,4.60
2022-08-23T12:42:27.153Z,4.50
2022-08-23T12:45:23.380Z,4.10
2022-08-23T12:47:58.881Z,4.10
2022-08-23T12:50:28.676Z,4.50
2022-08-23T12:53:07.994Z,4.70
2022-08-23T12:55:42.404Z,4.90
2022-08-23T12:58:10.705Z,5.00
2022-08-23T13:00:53.530Z,4.60
2022-08-23T13:03:28.775Z,4.50
2022-08-23T13:06:02.081Z,4.50
2022-08-23T13:08:40.477Z,4.30
2022-08-23T13:11:09.415Z,5.00
2022-08-23T13:13:40.176Z,4.70
2022-08-23T13:16:42.114Z,5.10
2022-08-23T13:19:23.074Z,4.40
2022-08-23T13:22:28.908Z,5.20
2022-08-23T13:27:54.485Z,4.90
2022-08-23T13:30:25.386Z,4.90
2022-08-23T13:33:13.155Z,4.90
2022-08-23T13:35:44.543Z,5.10
2022-08-23T13:38:18.256Z,4.60
2022-08-23T13:40:57.868Z,4.50
2022-08-23T13:43:31.285Z,4.90
2022-08-23T13:46:01.053Z,5.10
2022-08-23T13:48:33.974Z,5.30
2022-08-23T13:51:30.008Z,4.90
2022-08-23T13:53:59.559Z,4.40
2022-08-23T13:56:28.390Z,4.70
2022-08-23T13:59:18.172Z,4.80
2022-08-23T14:01:45.361Z,4.30
2022-08-23T14:04:12.435Z,4.60
2022-08-23T14:06:39.353Z,4.10
2022-08-23T14:09:05.858Z,4.10
2022-08-23T14:11:34.587Z,4.10
2022-08-23T14:14:01.639Z,4.00
2022-08-23T14:16:33.802Z,3.80
2022-08-23T14:19:55.173Z,4.00
2022-08-23T14:21:50.038Z,3.80
2022-08-23T14:24:18.860Z,3.70
2022-08-23T14:26:51.578Z,3.90
2022-08-23T14:29:22.244Z,3.40
2022-08-23T14:31:50.470Z,3.20
2022-08-23T14:34:17.292Z,3.30
2022-08-23T14:37:21.667Z,3.60
2022-08-23T14:39:30.848Z,2.80
2022-08-23T14:41:57.812Z,3.60
2022-08-23T14:44:25.669Z,3.40
2022-08-23T14:46:54.668Z,3.50
2022-08-23T14:49:22.270Z,3.50
2022-08-23T14:51:50.306Z,3.30
2022-08-23T14:54:25.764Z,3.10
2022-08-23T14:56:53.319Z,3.60
2022-08-23T14:59:20.577Z,3.70
2022-08-23T15:01:53.564Z,3.90
2022-08-23T15:04:22.849Z,4.00
2022-08-23T15:07:16.025Z,3.70
2022-08-23T15:09:38.315Z,4.10
2022-08-23T15:14:52.220Z,4.20
2022-08-23T15:17:18.890Z,4.20
2022-08-23T15:19:45.535Z,4.20
2022-08-23T15:22:18.438Z,4.70
2022-08-23T15:24:49.557Z,4.90
2022-08-23T15:27:18.130Z,3.90
2022-08-23T15:29:44.883Z,4.40
2022-08-23T15:32:12.705Z,4.20
2022-08-23T15:34:41.079Z,4.60
2022-08-23T15:37:13.862Z,4.80
2022-08-23T15:39:41.831Z,4.20
2022-08-23T15:42:08.600Z,4.40
2022-08-23T15:44:35.427Z,4.80
2022-08-23T15:47:05.055Z,5.10
2022-08-23T15:49:36.243Z,4.90
2022-08-23T15:52:04.852Z,5.00
2022-08-23T15:54:31.827Z,5.30
2022-08-23T15:56:58.549Z,5.30
2022-08-23T15:59:25.638Z,5.60
2022-08-23T16:01:52.784Z,5.70
2022-08-23T16:04:19.458Z,6.00
2022-08-23T16:06:46.552Z,5.50
2022-08-23T16:09:20.430Z,5.80
2022-08-23T16:11:47.161Z,5.40
2022-08-23T16:14:14.286Z,5.20
2022-08-23T16:16:42.412Z,5.50
2022-08-23T16:19:09.715Z,5.00
2022-08-23T16:21:36.669Z,5.50
2022-08-23T16:24:03.863Z,6.10
2022-08-23T16:26:35.015Z,5.20
2022-08-23T16:29:02.648Z,5.40
2022-08-23T16:31:38.307Z,5.40
2022-08-23T16:34:08.931Z,5.20
2022-08-23T16:36:36.102Z,5.30
2022-08-23T16:39:03.653Z,4.90
2022-08-23T16:41:30.151Z,5.10
2022-08-23T16:43:56.836Z,5.10
2022-08-23T16:46:24.763Z,5.70
2022-08-23T16:48:51.560Z,5.40
2022-08-23T16:51:18.723Z,5.90
2022-08-23T16:53:54.371Z,5.80
2022-08-23T16:56:30.159Z,6.10
2022-08-23T16:58:56.976Z,6.80
2022-08-23T17:01:24.247Z,6.50
2022-08-23T17:03:51.203Z,7.40
2022-08-23T17:06:17.923Z,7.40
2022-08-23T17:08:44.511Z,7.70
2022-08-23T17:11:15.199Z,7.80
2022-08-23T17:13:42.048Z,8.40
2022-08-23T17:16:09.704Z,9.30
2022-08-23T17:18:37.520Z,8.90
2022-08-23T17:21:04.956Z,9.20
2022-08-23T17:23:31.722Z,9.60
2022-08-23T17:25:59.173Z,9.90
2022-08-23T17:28:25.715Z,8.80
2022-08-23T17:30:52.437Z,9.30
2022-08-23T17:33:19.275Z,9.70
2022-08-23T17:35:45.926Z,9.50
2022-08-23T17:38:12.774Z,10.90
2022-08-23T17:40:40.659Z,11.30
2022-08-23T17:43:08.118Z,10.50
2022-08-23T17:45:41.746Z,11.00
2022-08-23T17:48:08.404Z,11.60
2022-08-23T17:50:35.619Z,10.50
2022-08-23T17:53:02.255Z,10.60
2022-08-23T17:55:34.449Z,11.00
2022-08-23T17:58:03.675Z,9.80
2022-08-23T18:00:32.992Z,9.60
2022-08-23T18:03:00.295Z,10.70
2022-08-23T18:05:29.621Z,11.10
2022-08-23T18:07:56.206Z,9.80
2022-08-23T18:10:22.895Z,11.40
2022-08-23T18:12:49.679Z,10.90
2022-08-23T18:15:16.421Z,10.70
2022-08-23T18:17:43.238Z,10.70
2022-08-23T18:20:11.822Z,10.40
2022-08-23T18:22:39.085Z,9.70
2022-08-23T18:25:10.955Z,10.30
2022-08-23T18:27:37.581Z,10.10
2022-08-23T18:30:41.612Z,8.70
2022-08-23T18:33:32.278Z,7.50
2022-08-23T18:36:14.459Z,5.10
2022-08-23T18:38:41.171Z,5.40
2022-08-23T18:41:07.857Z,4.10
2022-08-23T18:43:37.687Z,4.90
2022-08-23T18:46:05.855Z,5.00
2022-08-23T18:48:33.678Z,4.80
2022-08-23T18:51:01.243Z,4.40
2022-08-23T18:53:28.917Z,4.00
2022-08-23T18:55:55.781Z,3.30
2022-08-23T18:58:22.973Z,3.90
2022-08-23T19:00:52.065Z,3.40
2022-08-23T19:03:18.996Z,4.00
2022-08-23T19:05:45.705Z,3.80
2022-08-23T19:08:13.487Z,4.00
2022-08-23T19:10:41.655Z,4.10
2022-08-23T19:13:09.784Z,4.20
2022-08-23T19:15:37.964Z,3.90
2022-08-23T19:18:04.969Z,4.10
2022-08-23T19:20:31.874Z,4.80
2022-08-23T19:22:59.690Z,5.60
2022-08-23T19:25:27.072Z,4.80
2022-08-23T19:27:54.208Z,6.90
2022-08-23T19:30:20.953Z,13.90
2022-08-23T19:32:47.701Z,7.10
2022-08-23T19:35:14.411Z,7.00
2022-08-23T19:37:41.503Z,16.60
2022-08-23T19:40:09.019Z,7.70
2022-08-23T19:42:36.017Z,5.20
2022-08-23T19:45:05.128Z,5.20
2022-08-23T19:47:32.172Z,4.90
2022-08-23T19:49:59.054Z,5.00
2022-08-23T19:52:25.766Z,4.60
2022-08-23T19:54:52.647Z,4.70
2022-08-23T19:57:19.185Z,4.80
2022-08-23T19:59:45.725Z,4.70
2022-08-23T20:02:12.396Z,4.40
2022-08-23T20:04:39.186Z,4.30
2022-08-23T20:07:06.503Z,4.40
2022-08-23T20:09:34.606Z,4.00
2022-08-23T20:12:01.677Z,5.10
2022-08-23T20:14:29.846Z,4.60
2022-08-23T20:16:56.462Z,4.20
2022-08-23T20:19:23.087Z,4.70
2022-08-23T20:21:49.698Z,4.30
2022-08-23T20:24:16.818Z,4.50
2022-08-23T20:26:49.071Z,4.50
2022-08-23T20:29:20.060Z,4.50
2022-08-23T20:31:55.359Z,4.50
2022-08-23T20:34:23.292Z,5.10
2022-08-23T20:36:54.302Z,5.40
2022-08-23T20:39:23.933Z,5.50
2022-08-23T20:41:52.543Z,4.80
2022-08-23T20:44:20.595Z,5.20
2022-08-23T20:46:50.724Z,4.80
2022-08-23T20:49:20.351Z,5.00
2022-08-23T20:51:47.171Z,5.10
2022-08-23T20:54:14.673Z,5.00
2022-08-23T20:56:41.416Z,5.50
2022-08-23T20:59:08.743Z,5.90
2022-08-23T21:01:35.964Z,5.70
2022-08-23T21:04:02.780Z,5.90
2022-08-23T21:06:39.042Z,5.60
2022-08-23T21:09:05.691Z,5.80
2022-08-23T21:11:32.307Z,6.90
2022-08-23T21:13:58.877Z,7.40
2022-08-23T21:16:26.669Z,6.60
2022-08-23T21:18:53.875Z,5.60
2022-08-23T21:21:23.976Z,5.60
2022-08-23T21:23:50.857Z,6.60
2022-08-23T21:26:18.138Z,5.50
2022-08-23T21:28:44.717Z,5.90
2022-08-23T21:31:18.430Z,5.80
2022-08-23T21:33:45.609Z,5.60
2022-08-23T21:36:14.076Z,5.40
2022-08-23T21:38:40.940Z,5.90
2022-08-23T21:41:10.567Z,6.30
2022-08-23T21:43:38.095Z,5.60
2022-08-23T21:46:06.136Z,6.10
2022-08-23T21:48:33.533Z,6.30
2022-08-23T21:51:01.127Z,6.30
2022-08-23T21:53:27.806Z,5.70
2022-08-23T21:55:54.647Z,5.50
2022-08-23T21:58:21.249Z,5.80
2022-08-23T22:00:47.922Z,5.70
2022-08-23T22:03:14.538Z,6.20
2022-08-23T22:05:42.926Z,6.10
2022-08-23T22:08:10.705Z,6.20
2022-08-23T22:10:48.218Z,5.70
2022-08-23T22:13:26.410Z,7.10
2022-08-23T22:15:53.183Z,6.20
2022-08-23T22:18:19.847Z,6.30
2022-08-23T22:20:46.538Z,6.30
2022-08-23T22:23:13.318Z,6.30
2022-08-23T22:25:40.139Z,6.10
2022-08-23T22:28:06.716Z,5.80
2022-08-23T22:30:33.428Z,6.00
2022-08-23T22:32:59.938Z,7.00
2022-08-23T22:35:26.510Z,6.10
2022-08-23T22:38:12.916Z,6.10
2022-08-23T22:40:39.789Z,6.00
2022-08-23T22:43:06.542Z,5.60
2022-08-23T22:45:33.071Z,6.30
2022-08-23T22:48:00.276Z,5.40
2022-08-23T22:50:26.872Z,6.20
2022-08-23T22:52:53.430Z,5.80
2022-08-23T22:55:20.139Z,6.30
2022-08-23T22:57:46.707Z,6.30
2022-08-23T23:00:13.686Z,5.70
2022-08-23T23:02:42.155Z,6.90
2022-08-23T23:05:08.922Z,5.80
2022-08-23T23:07:35.538Z,6.00
2022-08-23T23:10:02.249Z,6.70
2022-08-23T23:12:29.041Z,7.00
2022-08-23T23:14:55.683Z,7.60
2022-08-23T23:17:22.277Z,6.60
2022-08-23T23:19:48.818Z,6.80
2022-08-23T23:22:15.561Z,6.80
2022-08-23T23:24:42.407Z,6.20
2022-08-23T23:27:09.050Z,6.30
2022-08-23T23:29:35.783Z,6.90
2022-08-23T23:32:02.540Z,7.10
2022-08-23T23:34:29.900Z,6.10
2022-08-23T23:36:57.667Z,6.90
2022-08-23T23:39:25.447Z,6.80
2022-08-23T23:41:52.016Z,6.30
2022-08-23T23:44:24.369Z,6.50
2022-08-23T23:46:58.701Z,6.50
2022-08-23T23:49:32.276Z,6.50
2022-08-23T23:52:04.801Z,7.10
2022-08-23T23:54:32.616Z,7.10
2022-08-23T23:56:59.595Z,6.20
2022-08-23T23:59:27.159Z,7.70
